createdAt,value
2019-01-05T00:01:04.733Z,15.53
2019-01-05T00:03:52.973Z,17.80
2019-01-05T00:06:39.980Z,14.67
2019-01-05T00:09:29.368Z,15.00
2019-01-05T00:12:14.848Z,13.63
2019-01-05T00:15:07.549Z,15.50
2019-01-05T00:18:06.662Z,16.13
2019-01-05T00:20:45.217Z,14.53
2019-01-05T00:23:31.455Z,20.67
2019-01-05T00:26:21.212Z,16.37
2019-01-05T00:29:07.012Z,16.07
2019-01-05T00:31:50.018Z,16.97
2019-01-05T00:34:51.580Z,19.93
2019-01-05T00:37:53.041Z,17.20
2019-01-05T00:40:38.571Z,24.10
2019-01-05T00:43:31.589Z,20.53
2019-01-05T00:46:17.885Z,21.50
2019-01-05T00:49:04.879Z,21.37
2019-01-05T00:51:52.032Z,20.50
2019-01-05T00:54:56.991Z,22.63
2019-01-05T00:57:43.027Z,17.13
2019-01-05T01:00:29.797Z,18.40
2019-01-05T01:03:34.682Z,16.60
2019-01-05T01:06:16.082Z,15.87
2019-01-05T01:09:03.217Z,14.00
2019-01-05T01:11:56.093Z,15.30
2019-01-05T01:14:41.012Z,16.00
2019-01-05T01:17:36.520Z,14.97
2019-01-05T01:20:29.243Z,15.97
2019-01-05T01:23:14.561Z,17.60
2019-01-05T01:26:07.506Z,14.10
2019-01-05T01:28:52.793Z,13.30
2019-01-05T01:31:38.022Z,11.27
2019-01-05T01:34:23.289Z,14.70
2019-01-05T01:37:08.704Z,12.80
2019-01-05T01:39:58.663Z,14.97
2019-01-05T01:42:44.125Z,15.70
2019-01-05T01:45:34.389Z,15.53
2019-01-05T01:48:10.667Z,15.00
2019-01-05T01:50:57.200Z,16.63
2019-01-05T01:53:42.601Z,16.00
2019-01-05T01:56:29.831Z,15.97
2019-01-05T01:59:30.197Z,16.97
2019-01-05T02:02:28.163Z,18.70
2019-01-05T02:05:18.554Z,17.70
2019-01-05T02:08:15.688Z,20.17
2019-01-05T02:11:16.747Z,19.60
2019-01-05T02:14:04.103Z,17.13
2019-01-05T02:17:06.676Z,18.63
2019-01-05T02:20:34.499Z,19.50
2019-01-05T02:24:14.608Z,18.33
2019-01-05T02:27:43.782Z,20.10
2019-01-05T02:31:36.135Z,16.67
2019-01-05T02:35:21.454Z,14.93
2019-01-05T02:38:49.347Z,19.70
2019-01-05T02:42:16.503Z,16.20
2019-01-05T02:45:46.286Z,19.77
2019-01-05T02:48:57.767Z,18.63
2019-01-05T02:52:00.795Z,19.20
2019-01-05T02:55:39.402Z,18.97
2019-01-05T02:59:30.161Z,16.10
2019-01-05T03:02:54.498Z,16.00
2019-01-05T03:06:00.491Z,15.33
2019-01-05T03:09:34.063Z,14.80
2019-01-05T03:12:55.933Z,17.17
2019-01-05T03:16:38.949Z,14.40
2019-01-05T03:20:07.080Z,16.73
2019-01-05T03:23:31.260Z,17.70
2019-01-05T03:26:55.344Z,14.47
2019-01-05T03:30:40.402Z,14.97
2019-01-05T03:34:01.044Z,14.20
2019-01-05T03:37:26.181Z,15.20
2019-01-05T03:40:59.195Z,15.90
2019-01-05T03:44:51.458Z,13.40
2019-01-05T03:48:14.695Z,11.03
2019-01-05T03:51:43.457Z,11.10
2019-01-05T03:55:08.781Z,14.80
2019-01-05T03:58:41.335Z,12.70
2019-01-05T04:02:37.244Z,16.77
2019-01-05T04:06:11.306Z,14.93
2019-01-05T04:10:08.129Z,15.20
2019-01-05T04:13:35.211Z,15.10
2019-01-05T04:17:12.519Z,13.33
2019-01-05T04:20:54.413Z,14.27
2019-01-05T04:24:40.715Z,14.03
2019-01-05T04:28:06.383Z,12.73
2019-01-05T04:31:41.788Z,12.97
2019-01-05T04:35:03.574Z,14.40
2019-01-05T04:38:20.732Z,12.10
2019-01-05T04:41:36.672Z,11.27
2019-01-05T04:44:49.697Z,17.20
2019-01-05T04:47:53.898Z,13.03
2019-01-05T04:51:17.262Z,13.80
2019-01-05T04:54:54.788Z,12.20
2019-01-05T04:58:13.013Z,10.97
2019-01-05T05:01:24.539Z,8.23
2019-01-05T05:04:59.355Z,7.53
2019-01-05T05:08:32.701Z,8.60
2019-01-05T05:11:49.245Z,6.67
2019-01-05T05:15:36.765Z,5.97
2019-01-05T05:18:50.597Z,5.77
2019-01-05T05:22:39.391Z,5.90
2019-01-05T05:25:55.638Z,8.73
2019-01-05T05:29:50.738Z,6.97
2019-01-05T05:33:10.278Z,7.90
2019-01-05T05:36:36.534Z,8.70
2019-01-05T05:40:01.606Z,7.33
2019-01-05T05:43:25.461Z,7.87
2019-01-05T05:46:54.375Z,8.03
2019-01-05T05:50:05.771Z,7.20
2019-01-05T05:53:43.719Z,9.33
2019-01-05T05:56:30.761Z,7.80
2019-01-05T05:59:38.320Z,5.70
2019-01-05T06:03:00.870Z,5.70
2019-01-05T06:06:23.357Z,6.53
2019-01-05T06:10:02.202Z,5.50
2019-01-05T06:13:32.442Z,10.33
2019-01-05T06:17:03.428Z,8.33
2019-01-05T06:20:19.097Z,8.37
2019-01-05T06:23:47.663Z,6.17
2019-01-05T06:27:03.710Z,6.77
2019-01-05T06:30:42.608Z,5.90
2019-01-05T06:34:27.684Z,7.23
2019-01-05T06:37:34.874Z,6.87
2019-01-05T06:41:13.735Z,5.97
2019-01-05T06:44:43.238Z,5.73
2019-01-05T06:48:07.948Z,6.23
2019-01-05T06:51:40.579Z,6.83
2019-01-05T06:55:04.950Z,6.90
2019-01-05T06:58:27.408Z,6.20
2019-01-05T07:02:09.415Z,4.93
2019-01-05T07:05:32.535Z,5.03
2019-01-05T07:08:53.968Z,5.33
2019-01-05T07:12:24.055Z,6.57
2019-01-05T07:15:58.849Z,4.13
2019-01-05T07:19:32.503Z,7.03
2019-01-05T07:22:58.160Z,7.00
2019-01-05T07:26:33.758Z,6.83
2019-01-05T07:30:09.043Z,8.20
2019-01-05T07:33:33.037Z,8.73
2019-01-05T07:36:53.368Z,7.00
2019-01-05T07:40:23.915Z,5.60
2019-01-05T07:43:51.776Z,5.93
2019-01-05T07:47:03.641Z,4.67
2019-01-05T07:50:24.269Z,4.83
2019-01-05T07:54:09.562Z,6.27
2019-01-05T07:57:38.161Z,5.80
2019-01-05T08:00:57.747Z,7.10
2019-01-05T08:04:30.357Z,7.90
2019-01-05T08:08:03.390Z,6.40
2019-01-05T08:11:29.338Z,5.87
2019-01-05T08:14:54.836Z,4.43
2019-01-05T08:18:21.711Z,5.13
2019-01-05T08:21:54.761Z,5.93
2019-01-05T08:25:32.415Z,5.33
2019-01-05T08:29:23.776Z,4.67
2019-01-05T08:32:47.032Z,4.37
2019-01-05T08:36:31.877Z,2.40
2019-01-05T08:39:55.103Z,2.80
2019-01-05T08:43:18.216Z,2.70
2019-01-05T08:47:23.779Z,1.70
2019-01-05T08:50:32.913Z,1.77
2019-01-05T08:53:58.378Z,1.70
2019-01-05T08:57:26.811Z,1.40
2019-01-05T09:00:49.760Z,1.73
2019-01-05T09:04:25.532Z,2.43
2019-01-05T09:08:00.663Z,2.53
2019-01-05T09:11:19.278Z,1.70
2019-01-05T09:14:45.030Z,2.50
2019-01-05T09:18:10.796Z,1.53
2019-01-05T09:21:22.232Z,1.20
2019-01-05T09:24:49.518Z,2.27
2019-01-05T09:28:03.557Z,2.53
2019-01-05T09:31:40.713Z,1.40
2019-01-05T09:35:34.369Z,1.40
2019-01-05T09:39:08.370Z,1.20
2019-01-05T09:42:34.264Z,1.20
2019-01-05T09:45:45.138Z,1.63
2019-01-05T09:48:59.369Z,1.57
2019-01-05T09:52:22.838Z,2.10
2019-01-05T09:55:44.077Z,1.60
2019-01-05T09:59:30.540Z,1.57
2019-01-05T10:03:00.901Z,1.90
2019-01-05T10:06:47.427Z,2.77
2019-01-05T10:09:59.180Z,1.47
2019-01-05T10:13:24.153Z,3.13
2019-01-05T10:16:42.216Z,1.80
2019-01-05T10:20:19.167Z,1.57
2019-01-05T10:23:54.890Z,1.80
2019-01-05T10:27:19.633Z,2.60
2019-01-05T10:31:01.147Z,2.40
2019-01-05T10:34:19.593Z,1.70
2019-01-05T10:37:54.519Z,1.80
2019-01-05T10:41:20.716Z,1.30
2019-01-05T10:44:51.902Z,1.43
2019-01-05T10:48:03.680Z,1.83
2019-01-05T10:51:20.796Z,1.53
2019-01-05T10:54:53.118Z,1.50
2019-01-05T10:58:42.143Z,1.83
2019-01-05T11:02:11.761Z,1.10
2019-01-05T11:05:40.695Z,1.27
2019-01-05T11:08:57.699Z,1.50
2019-01-05T11:12:32.468Z,1.50
2019-01-05T11:15:54.797Z,2.30
2019-01-05T11:19:44.239Z,1.87
2019-01-05T11:23:05.457Z,1.30
2019-01-05T11:26:30.997Z,3.20
2019-01-05T11:30:10.157Z,1.53
2019-01-05T11:33:27.710Z,1.27
2019-01-05T11:37:00.687Z,1.40
2019-01-05T11:40:48.933Z,1.27
2019-01-05T11:44:14.382Z,1.20
2019-01-05T11:47:43.811Z,1.87
2019-01-05T11:51:08.130Z,1.10
2019-01-05T11:54:31.360Z,1.33
2019-01-05T11:58:28.357Z,1.20
2019-01-05T12:01:55.841Z,1.13
2019-01-05T12:05:31.970Z,1.17
2019-01-05T12:08:50.309Z,1.37
2019-01-05T12:12:26.029Z,1.30
2019-01-05T12:16:05.312Z,1.10
2019-01-05T12:20:00.721Z,1.40
2019-01-05T12:23:20.384Z,1.20
2019-01-05T12:26:41.986Z,1.40
2019-01-05T12:30:03.810Z,1.23
2019-01-05T12:33:35.757Z,1.43
2019-01-05T12:37:10.468Z,2.00
2019-01-05T12:40:30.216Z,1.30
2019-01-05T12:43:52.356Z,1.50
2019-01-05T12:47:13.172Z,1.20
2019-01-05T12:50:34.808Z,1.30
2019-01-05T12:54:11.117Z,1.50
2019-01-05T12:58:18.339Z,1.30
2019-01-05T13:01:41.847Z,4.00
2019-01-05T13:05:16.206Z,1.43
2019-01-05T13:08:36.293Z,0.80
2019-01-05T13:11:51.109Z,1.27
2019-01-05T13:15:28.985Z,1.23
2019-01-05T13:18:56.129Z,1.10
2019-01-05T13:22:53.451Z,1.10
2019-01-05T13:26:31.803Z,1.10
2019-01-05T13:30:20.115Z,1.33
2019-01-05T13:34:02.415Z,1.53
2019-01-05T13:37:35.845Z,1.10
2019-01-05T13:41:18.098Z,3.97
2019-01-05T13:44:58.309Z,1.10
2019-01-05T13:48:37.496Z,1.20
2019-01-05T13:52:11.911Z,1.30
2019-01-05T13:54:58.542Z,1.50
2019-01-05T13:57:44.250Z,1.10
2019-01-05T14:00:28.063Z,1.40
2019-01-05T14:03:14.867Z,1.80
2019-01-05T14:06:07.610Z,3.07
2019-01-05T14:09:09.572Z,5.93
2019-01-05T14:11:59.022Z,1.20
2019-01-05T14:14:52.171Z,1.60
2019-01-05T14:17:37.497Z,1.30
2019-01-05T14:20:22.255Z,1.60
2019-01-05T14:23:07.223Z,1.23
2019-01-05T14:25:57.009Z,1.30
2019-01-05T14:28:43.926Z,1.50
2019-01-05T14:31:33.527Z,1.70
2019-01-05T14:34:23.405Z,1.30
2019-01-05T14:37:10.161Z,1.43
2019-01-05T14:40:14.913Z,1.63
2019-01-05T14:43:07.374Z,1.60
2019-01-05T14:45:54.519Z,1.40
2019-01-05T14:48:56.723Z,1.80
2019-01-05T14:51:58.483Z,2.30
2019-01-05T14:54:43.774Z,2.33
2019-01-05T14:57:28.870Z,1.40
2019-01-05T15:00:14.189Z,1.50
2019-01-05T15:03:06.769Z,1.50
2019-01-05T15:05:48.052Z,1.30
2019-01-05T15:08:33.515Z,2.60
2019-01-05T15:11:23.316Z,2.40
2019-01-05T15:14:10.262Z,1.77
2019-01-05T15:16:55.426Z,1.60
2019-01-05T15:20:00.449Z,1.50
2019-01-05T15:22:58.978Z,1.57
2019-01-05T15:25:44.264Z,2.43
2019-01-05T15:28:29.519Z,2.60
2019-01-05T15:31:14.713Z,1.33
2019-01-05T15:34:01.699Z,1.40
2019-01-05T15:37:00.426Z,2.00
2019-01-05T15:39:53.094Z,1.30
2019-01-05T15:42:39.925Z,1.67
2019-01-05T15:45:41.600Z,2.90
2019-01-05T15:48:27.104Z,1.77
2019-01-05T15:51:19.549Z,2.50
2019-01-05T15:54:08.375Z,1.60
2019-01-05T15:56:55.408Z,2.43
2019-01-05T15:59:40.781Z,3.37
2019-01-05T16:02:29.227Z,1.77
2019-01-05T16:05:18.879Z,1.33
2019-01-05T16:08:04.288Z,2.57
2019-01-05T16:10:52.695Z,2.37
2019-01-05T16:13:51.370Z,1.70
2019-01-05T16:16:47.071Z,1.43
2019-01-05T16:19:32.712Z,2.23
2019-01-05T16:22:18.350Z,2.30
2019-01-05T16:25:03.428Z,2.60
2019-01-05T16:27:53.059Z,2.43
2019-01-05T16:30:51.739Z,7.50
2019-01-05T16:33:53.479Z,2.40
2019-01-05T16:36:38.432Z,1.73
2019-01-05T16:39:28.589Z,2.40
2019-01-05T16:42:13.998Z,2.17
2019-01-05T16:44:59.562Z,4.10
2019-01-05T16:47:49.320Z,2.97
2019-01-05T16:50:34.570Z,3.53
2019-01-05T16:53:27.221Z,3.03
2019-01-05T16:56:14.039Z,2.20
2019-01-05T16:59:00.880Z,3.67
2019-01-05T17:01:52.230Z,1.80
2019-01-05T17:04:56.925Z,2.27
2019-01-05T17:07:44.046Z,2.27
2019-01-05T17:10:37.873Z,2.00
2019-01-05T17:13:42.669Z,2.43
2019-01-05T17:16:47.394Z,2.70
2019-01-05T17:19:36.494Z,2.63
2019-01-05T17:22:22.993Z,2.27
2019-01-05T17:25:07.346Z,2.27
2019-01-05T17:28:00.403Z,1.57
2019-01-05T17:30:45.882Z,1.77
2019-01-05T17:33:47.560Z,2.17
2019-01-05T17:36:52.671Z,2.00
2019-01-05T17:39:50.357Z,3.13
2019-01-05T17:42:41.099Z,2.03
2019-01-05T17:45:27.031Z,2.47
2019-01-05T17:48:25.900Z,2.17
2019-01-05T17:51:11.000Z,2.23
2019-01-05T17:53:56.118Z,1.97
2019-01-05T17:56:49.471Z,1.87
2019-01-05T17:59:48.169Z,2.13
2019-01-05T18:02:49.819Z,2.33
2019-01-05T18:05:35.586Z,3.50
2019-01-05T18:08:28.348Z,1.93
2019-01-05T18:11:14.541Z,3.37
2019-01-05T18:13:58.454Z,2.40
2019-01-05T18:16:45.825Z,3.33
2019-01-05T18:19:38.400Z,2.43
2019-01-05T18:22:33.870Z,2.70
2019-01-05T18:25:35.722Z,2.10
2019-01-05T18:28:37.165Z,1.90
2019-01-05T18:31:30.080Z,2.33
2019-01-05T18:34:15.414Z,2.93
2019-01-05T18:37:00.602Z,2.43
2019-01-05T18:39:45.794Z,1.83
2019-01-05T18:42:41.318Z,2.30
2019-01-05T18:45:39.832Z,2.53
2019-01-05T18:48:38.436Z,1.97
2019-01-05T18:51:31.024Z,2.90
2019-01-05T18:54:15.939Z,2.00
2019-01-05T18:57:01.546Z,2.90
2019-01-05T18:59:48.297Z,3.30
2019-01-05T19:02:35.190Z,1.90
2019-01-05T19:05:25.010Z,2.50
2019-01-05T19:08:10.549Z,2.20
2019-01-05T19:10:55.785Z,2.40
2019-01-05T19:13:45.701Z,3.40
2019-01-05T19:16:31.007Z,2.93
2019-01-05T19:19:16.484Z,2.00
2019-01-05T19:22:02.093Z,1.67
2019-01-05T19:24:57.765Z,2.30
2019-01-05T19:27:44.372Z,1.93
2019-01-05T19:30:29.836Z,1.70
2019-01-05T19:33:22.105Z,1.97
2019-01-05T19:36:14.435Z,2.40
2019-01-05T19:39:12.989Z,2.87
2019-01-05T19:42:00.067Z,2.10
2019-01-05T19:44:45.182Z,2.40
2019-01-05T19:47:30.253Z,1.90
2019-01-05T19:50:32.180Z,2.50
2019-01-05T19:53:23.063Z,1.83
2019-01-05T19:56:08.608Z,2.03
2019-01-05T19:58:53.742Z,3.13
2019-01-05T20:01:46.300Z,2.20
2019-01-05T20:04:36.094Z,2.57
2019-01-05T20:07:21.311Z,2.23
2019-01-05T20:10:07.017Z,2.50
2019-01-05T20:12:59.887Z,2.30
2019-01-05T20:15:49.483Z,2.20
2019-01-05T20:18:35.514Z,3.93
2019-01-05T20:21:21.202Z,1.93
2019-01-05T20:24:14.029Z,2.27
2019-01-05T20:26:53.781Z,2.53
2019-01-05T20:29:35.303Z,2.00
2019-01-05T20:32:20.377Z,2.07
2019-01-05T20:35:05.538Z,2.70
2019-01-05T20:37:45.963Z,2.17
2019-01-05T20:40:41.867Z,1.80
2019-01-05T20:43:37.962Z,1.87
2019-01-05T20:46:23.320Z,2.77
2019-01-05T20:49:08.770Z,2.40
2019-01-05T20:52:13.471Z,1.90
2019-01-05T20:54:58.790Z,2.00
2019-01-05T20:57:57.675Z,1.93
2019-01-05T21:00:47.413Z,1.43
2019-01-05T21:03:34.751Z,1.80
2019-01-05T21:06:20.094Z,2.07
2019-01-05T21:09:24.999Z,2.50
2019-01-05T21:12:10.213Z,2.30
2019-01-05T21:14:57.245Z,2.20
2019-01-05T21:17:42.502Z,1.57
2019-01-05T21:20:25.578Z,1.53
2019-01-05T21:23:27.547Z,1.83
2019-01-05T21:26:29.531Z,2.50
2019-01-05T21:29:14.731Z,1.70
2019-01-05T21:31:54.698Z,1.60
2019-01-05T21:34:36.485Z,1.83
2019-01-05T21:37:32.326Z,2.20
2019-01-05T21:40:18.253Z,2.83
2019-01-05T21:42:57.368Z,1.37
2019-01-05T21:46:01.841Z,1.33
2019-01-05T21:48:46.805Z,1.60
2019-01-05T21:51:39.642Z,1.67
2019-01-05T21:54:41.034Z,1.30
2019-01-05T21:57:22.275Z,1.80
2019-01-05T22:00:09.047Z,1.63
2019-01-05T22:03:01.835Z,1.30
2019-01-05T22:05:48.548Z,2.00
2019-01-05T22:08:47.214Z,1.50
2019-01-05T22:11:26.344Z,1.40
2019-01-05T22:14:22.302Z,2.50
2019-01-05T22:17:07.209Z,18.53
2019-01-05T22:19:52.175Z,2.20
2019-01-05T22:22:49.831Z,1.97
2019-01-05T22:25:54.889Z,1.10
2019-01-05T22:28:33.125Z,1.50
2019-01-05T22:31:26.493Z,1.70
2019-01-05T22:34:13.269Z,1.70
2019-01-05T22:37:03.541Z,1.47
2019-01-05T22:39:48.960Z,1.60
2019-01-05T22:42:34.639Z,3.00
2019-01-05T22:45:39.415Z,1.80
2019-01-05T22:48:31.635Z,1.50
2019-01-05T22:51:18.829Z,2.27
2019-01-05T22:54:04.373Z,1.53
2019-01-05T22:56:49.958Z,2.03
2019-01-05T22:59:32.050Z,2.53
2019-01-05T23:02:22.667Z,1.83
2019-01-05T23:05:12.243Z,1.70
2019-01-05T23:07:59.322Z,2.33
2019-01-05T23:10:44.562Z,2.50
2019-01-05T23:13:31.187Z,2.80
2019-01-05T23:16:27.107Z,2.20
2019-01-05T23:19:12.638Z,2.07
2019-01-05T23:21:59.477Z,2.10
2019-01-05T23:25:03.965Z,2.43
2019-01-05T23:27:51.221Z,2.87
2019-01-05T23:30:43.843Z,3.33
2019-01-05T23:33:43.112Z,2.27
2019-01-05T23:36:28.405Z,3.00
2019-01-05T23:39:30.120Z,1.90
2019-01-05T23:42:09.623Z,2.37
2019-01-05T23:44:54.535Z,4.03
2019-01-05T23:47:59.043Z,2.60
2019-01-05T23:50:45.825Z,2.30
2019-01-05T23:53:29.827Z,2.17
2019-01-05T23:56:19.760Z,2.40
2019-01-05T23:59:05.445Z,2.70
